Time;durP1;ratioP1;P1;durP2;ratioP2;P2;SDS_P1;SDS_P2;PMS_P1;PMS_P2;Temp;Humidity;BMP_temperature;BMP_pressure;BME280_temperature;BME280_humidity;BME280_pressure;Samples;Min_cycle;Max_cycle;Signal;HPM_P1;HPM_P2
2023/07/19 09:05:14;;;;;;;;;0.00;0.00;;;;;23.50;42.42;101422.13;2988554;23;45394;-91
2023/07/19 09:07:40;;;;;;;;;0.00;0.00;;;;;23.54;42.43;101418.28;4880546;29;45550;-91
2023/07/19 09:10:07;;;;;;;;;1.00;1.00;;;;;23.62;42.56;101422.97;4877638;29;45683;-90
2023/07/19 09:12:38;;;;;;;;;0.00;0.00;;;;;23.65;42.04;101421.88;4879902;29;48192;-91
2023/07/19 09:15:09;;;;;;;;;0.00;0.00;;;;;23.62;42.23;101423.81;4879220;29;45399;-90
2023/07/19 09:17:36;;;;;;;;;0.00;0.00;;;;;23.67;41.77;101423.44;4872571;29;45550;-91
2023/07/19 09:20:01;;;;;;;;;1.00;1.00;;;;;23.72;41.95;101421.25;4861517;29;45404;-92
2023/07/19 09:22:28;;;;;;;;;0.00;0.00;;;;;23.73;41.80;101430.06;4874466;29;45672;-91
2023/07/19 09:25:01;;;;;;;;;0.67;0.67;;;;;23.73;41.43;101430.91;4866507;29;46490;-92
2023/07/19 09:27:27;;;;;;;;;0.00;0.00;;;;;23.74;41.73;101431.75;4877745;29;45353;-92
2023/07/19 09:29:52;;;;;;;;;0.67;0.33;;;;;23.75;41.89;101423.66;4878332;29;45305;-92
2023/07/19 09:32:18;;;;;;;;;1.00;1.00;;;;;23.79;41.44;101426.06;4879597;29;48059;-91
2023/07/19 09:34:45;;;;;;;;;1.33;1.33;;;;;23.78;41.43;101422.56;4873196;29;45529;-90
2023/07/19 09:37:10;;;;;;;;;1.00;1.00;;;;;23.75;41.15;101421.00;4868462;29;45508;-91
2023/07/19 09:39:37;;;;;;;;;1.00;1.00;;;;;23.72;40.77;101433.69;4870250;29;45624;-92
2023/07/19 09:42:03;;;;;;;;;2.67;1.00;;;;;23.74;41.06;101421.97;4878589;29;46657;-91
2023/07/19 09:44:30;;;;;;;;;0.00;0.00;;;;;23.83;41.01;101431.00;4877500;29;45408;-92
2023/07/19 09:46:56;;;;;;;;;1.67;1.00;;;;;23.96;40.57;101427.31;4881395;29;45440;-91
2023/07/19 09:49:22;;;;;;;;;0.67;0.00;;;;;24.08;40.72;101430.81;4878442;29;45341;-93
2023/07/19 09:51:48;;;;;;;;;1.33;0.67;;;;;24.18;40.53;101434.41;4879432;29;45979;-91
2023/07/19 09:54:15;;;;;;;;;0.33;0.33;;;;;24.26;39.88;101431.94;4875489;29;45466;-91
2023/07/19 09:56:43;;;;;;;;;0.67;0.67;;;;;24.26;39.52;101431.94;4873100;29;45498;-91
2023/07/19 09:59:14;;;;;;;;;1.00;1.00;;;;;24.31;39.44;101436.88;4868401;29;45491;-91
2023/07/19 10:01:40;;;;;;;;;1.00;1.00;;;;;24.29;39.25;101431.69;4874977;29;48093;-90
2023/07/19 10:04:25;;;;;;;;;0.00;0.00;;;;;24.37;39.11;101430.19;4877818;29;45690;-91
2023/07/19 10:07:19;;;;;;;;;1.00;1.00;;;;;24.45;38.68;101425.09;4876738;29;44734;-92
2023/07/19 10:09:46;;;;;;;;;0.33;0.33;;;;;24.58;38.64;101434.69;4879042;29;45744;-91
2023/07/19 10:12:17;;;;;;;;;3.00;1.00;;;;;24.59;38.62;101425.72;4880961;29;45720;-92
2023/07/19 10:15:02;;;;;;;;;0.67;0.67;;;;;24.63;38.58;101416.50;4879087;29;45313;-93
2023/07/19 10:17:29;;;;;;;;;2.00;1.00;;;;;24.72;38.46;101417.53;4878534;29;45271;-93
2023/07/19 10:20:12;;;;;;;;;1.00;1.00;;;;;24.82;38.13;101423.78;4879863;29;45586;-93
2023/07/19 10:22:58;;;;;;;;;0.00;0.00;;;;;24.89;37.86;101429.41;4880169;29;46115;-92
2023/07/19 10:25:39;;;;;;;;;1.00;1.00;;;;;24.94;38.28;101432.50;4879458;29;44713;-92
2023/07/19 10:28:09;;;;;;;;;1.00;0.00;;;;;24.98;37.77;101428.59;4878159;29;45790;-91
2023/07/19 10:30:48;;;;;;;;;0.33;0.00;;;;;24.95;38.06;101429.72;4873414;29;45309;-91
2023/07/19 10:33:19;;;;;;;;;2.00;1.67;;;;;24.91;38.34;101422.13;4877977;29;48294;-92
2023/07/19 10:35:47;;;;;;;;;2.00;1.33;;;;;25.01;38.01;101425.69;4891838;29;45538;-91
2023/07/19 10:38:24;;;;;;;;;1.00;1.00;;;;;25.15;37.74;101431.63;4879755;29;45386;-91
2023/07/19 10:40:54;;;;;;;;;1.00;1.00;;;;;25.30;37.75;101432.94;4880076;29;45587;-91
2023/07/19 10:43:22;;;;;;;;;1.00;1.00;;;;;25.41;37.08;101423.97;4878232;29;47318;-93
2023/07/19 10:45:47;;;;;;;;;2.67;1.00;;;;;25.54;37.19;101425.59;4880994;29;45152;-92
2023/07/19 10:48:13;;;;;;;;;2.67;0.33;;;;;25.67;36.93;101433.31;4882759;29;45400;-89
2023/07/19 10:50:38;;;;;;;;;5.00;2.67;;;;;25.87;37.23;101431.53;4882656;29;45616;-91
2023/07/19 10:53:06;;;;;;;;;2.00;2.00;;;;;26.02;36.68;101431.97;4881801;29;48056;-91
2023/07/19 10:55:31;;;;;;;;;1.00;1.00;;;;;26.12;35.89;101437.28;4882758;29;45382;-91
2023/07/19 10:57:56;;;;;;;;;1.67;1.67;;;;;26.12;35.90;101429.28;4882222;29;45304;-92
2023/07/19 11:00:22;;;;;;;;;1.00;1.00;;;;;26.08;35.86;101430.53;4896736;29;45280;-92
2023/07/19 11:02:48;;;;;;;;;1.33;1.00;;;;;26.09;35.88;101441.06;4917081;28;45673;-91
2023/07/19 11:05:15;;;;;;;;;1.33;1.00;;;;;26.12;35.94;101439.94;4881780;29;45519;-92
2023/07/19 11:07:40;;;;;;;;;3.00;1.00;;;;;26.19;35.01;101432.22;4882702;29;45374;-91
2023/07/19 11:10:07;;;;;;;;;0.67;0.67;;;;;26.24;35.41;101432.69;4883108;29;45479;-93
2023/07/19 11:12:32;;;;;;;;;1.00;1.00;;;;;26.32;34.61;101437.28;4882598;29;45976;-91
2023/07/19 11:15:00;;;;;;;;;1.00;1.00;;;;;26.40;35.03;101424.94;4881216;29;45415;-90
2023/07/19 11:17:28;;;;;;;;;1.00;1.00;;;;;26.57;34.78;101424.34;4882630;29;45492;-93
2023/07/19 11:19:55;;;;;;;;;3.33;1.67;;;;;26.73;34.50;101429.06;4882765;29;45364;-93
2023/07/19 11:22:25;;;;;;;;;2.00;2.00;;;;;26.86;33.94;101420.72;4881496;29;47375;-91
2023/07/19 11:24:53;;;;;;;;;1.67;1.67;;;;;26.91;33.55;101427.31;4881945;29;45893;-92
2023/07/19 11:27:39;;;;;;;;;1.67;1.00;;;;;27.04;33.63;101426.16;4881908;29;45303;-90
2023/07/19 11:30:06;;;;;;;;;1.00;1.00;;;;;27.12;33.20;101428.09;4880679;29;45513;-91
2023/07/19 11:32:32;;;;;;;;;1.33;1.33;;;;;27.17;34.13;101432.00;4881611;29;46633;-92
2023/07/19 11:35:00;;;;;;;;;2.00;2.00;;;;;27.31;32.95;101419.97;4883142;29;45460;-92
2023/07/19 11:37:38;;;;;;;;;0.67;0.67;;;;;27.42;32.99;101423.44;4883391;29;45391;-92
2023/07/19 11:40:05;;;;;;;;;1.67;1.67;;;;;27.52;33.34;101420.69;4883700;29;45447;-92
2023/07/19 11:42:50;;;;;;;;;2.00;2.00;;;;;27.68;32.74;101428.91;4897167;28;45918;-91
2023/07/19 11:45:18;;;;;;;;;2.00;2.00;;;;;27.78;32.62;101425.34;4881743;29;45515;-92
2023/07/19 11:47:45;;;;;;;;;0.00;0.00;;;;;27.95;32.08;101418.31;4881970;29;45440;-92
2023/07/19 11:50:11;;;;;;;;;3.67;1.33;;;;;28.11;31.79;101412.25;4882224;29;45409;-92
2023/07/19 11:52:51;;;;;;;;;1.67;1.67;;;;;28.24;31.73;101414.56;4880341;29;47094;-91
2023/07/19 11:55:19;;;;;;;;;0.33;0.33;;;;;28.32;31.63;101413.78;4882496;29;45374;-90
2023/07/19 11:57:51;;;;;;;;;3.00;2.00;;;;;28.40;31.25;101408.47;4881155;29;45315;-92
2023/07/19 12:00:18;;;;;;;;;1.33;1.33;;;;;28.47;31.63;101414.84;4898928;29;45524;-91
2023/07/19 12:02:45;;;;;;;;;2.00;1.67;;;;;28.56;31.29;101410.44;4900200;29;46695;-92
2023/07/19 12:05:11;;;;;;;;;2.33;2.00;;;;;28.69;30.96;101423.34;4900277;29;45549;-92
2023/07/19 12:07:37;;;;;;;;;0.67;0.00;;;;;28.75;30.70;101420.06;4901953;29;45338;-92
2023/07/19 12:10:04;;;;;;;;;1.00;1.00;;;;;28.80;30.94;101422.25;4871019;29;45394;-92
2023/07/19 12:12:34;;;;;;;;;3.33;2.00;;;;;28.81;30.81;101419.44;4871684;29;45422;-92
2023/07/19 12:15:00;;;;;;;;;2.00;2.00;;;;;28.78;30.71;101406.34;4881760;29;45358;-92
2023/07/19 12:17:26;;;;;;;;;0.67;0.67;;;;;28.75;30.78;101412.03;4881838;29;45469;-92
2023/07/19 12:19:53;;;;;;;;;2.00;1.00;;;;;28.67;30.62;101417.34;4882242;29;45326;-92
2023/07/19 12:22:18;;;;;;;;;2.00;0.00;;;;;28.55;30.83;101416.75;4881446;29;47313;-94
2023/07/19 12:24:44;;;;;;;;;1.33;0.33;;;;;28.49;31.24;101412.03;4881737;29;45862;-93
2023/07/19 12:27:10;;;;;;;;;1.00;1.00;;;;;28.44;30.80;101406.31;4881876;29;46086;-93
2023/07/19 12:29:35;;;;;;;;;1.00;1.00;;;;;28.46;30.86;101413.19;4865799;29;45634;-91
2023/07/19 12:32:02;;;;;;;;;0.00;0.00;;;;;28.43;30.83;101407.31;4882810;29;46631;-92
2023/07/19 12:34:28;;;;;;;;;1.00;0.67;;;;;28.40;30.81;101409.31;4883035;29;45403;-91
2023/07/19 12:36:53;;;;;;;;;0.00;0.00;;;;;28.46;30.71;101405.16;4882875;29;45527;-92
2023/07/19 12:39:23;;;;;;;;;0.33;0.33;;;;;28.57;30.89;101396.03;4881211;29;45556;-92
2023/07/19 12:41:48;;;;;;;;;2.00;1.00;;;;;28.70;30.74;101394.75;4881739;29;45418;-92
2023/07/19 12:44:14;;;;;;;;;2.67;1.00;;;;;28.87;30.77;101401.06;4882486;29;45308;-92
2023/07/19 12:46:40;;;;;;;;;0.67;0.33;;;;;28.99;30.44;101398.94;4881293;29;45421;-91
2023/07/19 12:49:06;;;;;;;;;0.67;0.67;;;;;28.99;30.11;101398.94;4881504;29;45361;-91
2023/07/19 12:51:31;;;;;;;;;2.00;0.00;;;;;28.98;29.90;101403.47;4882562;29;45877;-92
2023/07/19 12:53:57;;;;;;;;;0.33;0.33;;;;;28.96;30.54;101401.94;4881387;29;45478;-93
2023/07/19 12:56:24;;;;;;;;;2.67;2.00;;;;;28.98;30.28;101391.91;4880671;29;45291;-93
2023/07/19 12:58:49;;;;;;;;;1.00;1.00;;;;;28.99;30.76;101390.91;4883165;29;45411;-92
2023/07/19 13:01:15;;;;;;;;;0.67;0.00;;;;;28.93;30.63;101401.25;4880989;29;45792;-92
2023/07/19 13:03:40;;;;;;;;;3.00;1.00;;;;;28.80;30.19;101398.97;4882608;29;45640;-92
2023/07/19 13:06:06;;;;;;;;;1.00;1.00;;;;;28.68;30.34;101389.56;4880896;29;45325;-92
2023/07/19 13:08:31;;;;;;;;;1.00;1.00;;;;;28.58;30.54;101397.72;4880848;29;45283;-93
2023/07/19 13:10:58;;;;;;;;;1.67;1.00;;;;;28.56;30.33;101405.06;4880305;29;46931;-92
2023/07/19 13:13:23;;;;;;;;;1.67;0.00;;;;;28.47;30.30;101390.78;4880953;29;45244;-92
2023/07/19 13:15:49;;;;;;;;;2.00;0.33;;;;;28.39;30.85;101386.25;4876164;29;45451;-93
2023/07/19 13:18:15;;;;;;;;;3.00;1.00;;;;;28.33;30.17;101381.47;4862954;29;45355;-91
2023/07/19 13:20:40;;;;;;;;;1.33;0.67;;;;;28.24;30.51;101388.63;4863054;29;45701;-92
2023/07/19 13:23:05;;;;;;;;;1.67;1.67;;;;;28.21;30.83;101388.06;4879447;29;45345;-93
2023/07/19 13:25:31;;;;;;;;;3.33;2.33;;;;;28.20;31.03;101386.41;4879876;29;45366;-92
2023/07/19 13:27:56;;;;;;;;;2.33;2.00;;;;;28.23;30.58;101383.44;4881105;29;45545;-93
2023/07/19 13:30:22;;;;;;;;;1.00;1.00;;;;;28.20;30.53;101389.91;4880339;29;45847;-91
2023/07/19 13:32:47;;;;;;;;;0.33;0.33;;;;;28.08;30.28;101381.28;4881473;29;45475;-92
2023/07/19 13:35:12;;;;;;;;;1.00;1.00;;;;;28.01;30.22;101382.91;4880183;29;45545;-91
2023/07/19 13:37:38;;;;;;;;;2.67;1.33;;;;;27.92;30.38;101373.16;4878940;29;45548;-91
2023/07/19 13:40:06;;;;;;;;;2.00;2.00;;;;;27.86;30.73;101379.97;4878369;29;45622;-92
2023/07/19 13:42:34;;;;;;;;;2.00;2.00;;;;;27.84;31.15;101379.25;4881870;29;45476;-93
2023/07/19 13:45:01;;;;;;;;;3.00;3.00;;;;;27.82;30.66;101392.78;4875767;29;45272;-91
2023/07/19 13:47:27;;;;;;;;;5.00;3.00;;;;;27.79;30.63;101385.09;4895653;29;45505;-91
2023/07/19 13:49:53;;;;;;;;;0.33;0.33;;;;;27.81;31.22;101387.59;4879522;29;47490;-92
2023/07/19 13:52:18;;;;;;;;;2.00;2.00;;;;;27.87;30.68;101379.78;4878732;29;45529;-92
2023/07/19 13:54:44;;;;;;;;;1.67;1.67;;;;;27.91;30.79;101376.81;4879615;29;45479;-92
2023/07/19 13:57:09;;;;;;;;;1.00;1.00;;;;;27.95;30.58;101380.88;4895778;29;45286;-93
2023/07/19 13:59:34;;;;;;;;;4.00;2.00;;;;;27.96;30.79;101383.38;4879510;29;46509;-91
2023/07/19 14:02:00;;;;;;;;;1.67;1.67;;;;;27.98;30.67;101381.41;4879335;29;45421;-92
2023/07/19 14:04:25;;;;;;;;;1.33;1.33;;;;;28.02;30.76;101387.28;4878564;29;45485;-92
2023/07/19 14:06:50;;;;;;;;;2.00;1.00;;;;;28.04;30.37;101379.91;4879729;29;45467;-93
2023/07/19 14:09:16;;;;;;;;;2.00;1.00;;;;;28.04;30.75;101373.75;4879753;29;45805;-92
2023/07/19 14:11:41;;;;;;;;;2.00;2.00;;;;;28.09;30.87;101372.28;4878289;29;45403;-91
2023/07/19 14:14:07;;;;;;;;;0.00;0.00;;;;;28.25;31.01;101374.28;4861600;29;45286;-92
2023/07/19 14:16:32;;;;;;;;;0.33;0.33;;;;;28.34;30.32;101375.16;4861713;29;45665;-92
2023/07/19 15:17:35;;;;;;;;;0.33;0.00;;;;;27.61;30.86;101347.66;4882938;29;45483;-94
2023/07/19 15:20:00;;;;;;;;;1.00;1.00;;;;;27.55;30.86;101346.41;4867155;29;45554;-94
2023/07/19 15:22:26;;;;;;;;;1.00;1.00;;;;;27.53;31.19;101344.88;4882420;29;45489;-95
2023/07/19 15:24:51;;;;;;;;;1.00;0.00;;;;;27.53;30.47;101353.72;4883269;29;45394;-94
2023/07/19 15:27:16;;;;;;;;;1.00;1.00;;;;;27.51;31.18;101344.19;4867919;29;45260;-94
2023/07/19 15:29:42;;;;;;;;;1.00;0.00;;;;;27.54;31.12;101362.59;4866304;29;45226;-95
2023/07/19 15:32:08;;;;;;;;;0.00;0.00;;;;;27.54;30.94;101347.38;4882779;29;45422;-95
2023/07/19 15:34:33;;;;;;;;;2.00;1.00;;;;;27.57;31.02;101343.56;4865967;29;45307;-93
2023/07/19 15:36:58;;;;;;;;;0.00;0.00;;;;;27.61;31.38;101328.94;4868134;29;45483;-93
2023/07/19 15:39:24;;;;;;;;;1.00;1.00;;;;;27.62;31.47;101335.97;4867547;29;45648;-94
2023/07/19 15:41:49;;;;;;;;;1.00;1.00;;;;;27.67;30.82;101332.84;4882851;29;45862;-93
2023/07/19 15:44:15;;;;;;;;;2.00;0.00;;;;;27.69;31.76;101341.53;4883533;29;45392;-94
2023/07/19 15:46:40;;;;;;;;;1.00;1.00;;;;;27.71;31.17;101342.22;4865107;29;45673;-94
2023/07/19 15:49:05;;;;;;;;;1.00;1.00;;;;;27.71;31.58;101342.22;4866970;29;45440;-94
2023/07/19 15:51:31;;;;;;;;;0.00;0.00;;;;;27.71;31.39;101339.53;4882673;29;48115;-92
2023/07/19 15:53:57;;;;;;;;;1.33;0.33;;;;;27.72;31.25;101333.22;4867201;29;45493;-95
2023/07/19 15:56:22;;;;;;;;;0.33;0.33;;;;;27.71;31.71;101335.06;4867382;29;45447;-95
2023/07/19 16:33:42;;;;;;;;;0.00;0.00;;;;;27.11;31.96;101319.59;4505000;23;45998;-88
2023/07/19 16:36:07;;;;;;;;;1.00;1.00;;;;;27.03;32.18;101318.50;4916059;28;46927;-89
2023/07/19 16:38:33;;;;;;;;;2.00;2.00;;;;;26.91;32.02;101309.00;4893532;28;45807;-88
2023/07/19 16:40:58;;;;;;;;;0.00;0.00;;;;;26.84;32.70;101311.41;4910773;28;45949;-88
2023/07/19 16:43:23;;;;;;;;;1.00;1.00;;;;;26.80;32.84;101308.19;4884845;28;45729;-88
2023/07/19 16:45:49;;;;;;;;;1.00;1.00;;;;;26.83;32.97;101314.25;4901781;28;46921;-88
2023/07/19 16:48:14;;;;;;;;;0.33;0.33;;;;;26.85;32.52;101315.78;4899326;28;45531;-88
2023/07/19 16:50:40;;;;;;;;;1.67;1.67;;;;;26.84;32.46;101311.41;4918291;28;45374;-88
2023/07/19 16:53:16;;;;;;;;;0.33;0.00;;;;;26.80;32.19;101310.03;4903736;28;44951;-88
2023/07/19 16:55:43;;;;;;;;;0.00;0.00;;;;;26.76;32.22;101303.31;4917475;28;45550;-88
2023/07/19 16:58:09;;;;;;;;;1.33;1.33;;;;;26.63;32.90;101317.00;4913369;28;45643;-87
2023/07/19 17:00:35;;;;;;;;;0.67;0.67;;;;;26.52;32.55;101315.38;4894303;28;45527;-87
2023/07/19 17:03:01;;;;;;;;;1.33;0.33;;;;;26.42;32.71;101316.25;4904057;28;45648;-88
2023/07/19 17:05:26;;;;;;;;;0.00;0.00;;;;;26.39;33.39;101310.34;4901667;28;45581;-88
2023/07/19 17:07:52;;;;;;;;;1.33;0.67;;;;;26.37;32.76;101302.50;4902507;28;45413;-88
2023/07/19 17:10:18;;;;;;;;;1.33;0.00;;;;;26.36;33.11;101303.50;4902788;28;45428;-88
2023/07/19 17:12:44;;;;;;;;;1.33;1.00;;;;;26.32;33.58;101302.09;4906044;28;45523;-88
2023/07/19 17:15:10;;;;;;;;;0.00;0.00;;;;;26.32;33.59;101302.09;4903723;28;45567;-88
2023/07/19 17:17:36;;;;;;;;;0.00;0.00;;;;;26.31;33.45;101305.75;4910964;28;45411;-88
2023/07/19 17:20:02;;;;;;;;;1.00;0.00;;;;;26.29;33.48;101305.06;4882753;29;45444;-87
2023/07/19 17:22:28;;;;;;;;;1.67;1.33;;;;;26.28;33.48;101306.03;4908885;28;45588;-88
2023/07/19 17:24:53;;;;;;;;;3.00;3.00;;;;;26.26;33.20;101292.84;4918871;28;46111;-88
2023/07/19 17:27:19;;;;;;;;;1.00;1.00;;;;;26.30;34.06;101298.75;4884924;28;45465;-88
2023/07/19 17:29:44;;;;;;;;;0.00;0.00;;;;;26.28;33.62;101293.53;4901853;28;45254;-88
2023/07/19 17:32:09;;;;;;;;;1.00;1.00;;;;;26.24;33.37;101291.31;4899515;28;45492;-87
2023/07/19 17:34:34;;;;;;;;;1.00;1.00;;;;;26.26;33.71;101289.34;4897367;28;45950;-88
2023/07/19 17:37:00;;;;;;;;;0.00;0.00;;;;;26.26;33.94;101284.84;4885840;28;45333;-87
2023/07/19 17:39:25;;;;;;;;;3.67;3.00;;;;;26.27;34.29;101291.88;4892014;28;46844;-88
2023/07/19 17:41:51;;;;;;;;;1.00;1.00;;;;;26.29;34.39;101289.06;4917262;28;45807;-88
2023/07/19 17:44:16;;;;;;;;;1.00;1.00;;;;;26.30;33.96;101289.88;4903149;28;46964;-85
2023/07/19 17:46:42;;;;;;;;;1.00;1.00;;;;;26.28;34.38;101298.88;4900419;28;45346;-85
2023/07/19 17:49:09;;;;;;;;;0.67;0.00;;;;;26.25;34.75;101296.50;4889949;28;45403;-86
2023/07/19 17:51:34;;;;;;;;;0.67;0.00;;;;;26.24;34.06;101310.81;4883677;29;45882;-86
2023/07/19 17:53:59;;;;;;;;;1.67;1.00;;;;;26.22;34.42;101299.44;4903622;28;46363;-86
2023/07/19 17:56:25;;;;;;;;;0.00;0.00;;;;;26.22;34.28;101306.56;4907715;28;45444;-86
2023/07/19 17:58:50;;;;;;;;;0.67;0.67;;;;;26.20;34.67;101301.38;4916076;28;45648;-86
2023/07/19 18:01:16;;;;;;;;;1.67;0.00;;;;;26.16;34.59;101305.34;4920257;28;45576;-85
2023/07/19 18:03:42;;;;;;;;;1.00;1.00;;;;;26.11;34.74;101303.09;4899814;28;45786;-85
2023/07/19 18:06:08;;;;;;;;;1.67;1.00;;;;;26.05;34.92;101300.19;4900664;28;45414;-85
2023/07/19 18:08:33;;;;;;;;;0.33;0.33;;;;;26.04;34.83;101310.00;4889931;28;45463;-86
2023/07/19 18:10:59;;;;;;;;;0.33;0.33;;;;;26.02;35.09;101303.97;4903978;28;45310;-88
2023/07/19 18:13:24;;;;;;;;;1.33;1.33;;;;;26.01;34.90;101300.47;4902588;28;45862;-88
2023/07/19 18:15:50;;;;;;;;;2.00;2.00;;;;;25.95;35.24;101309.03;4916778;28;45827;-88
2023/07/19 18:18:15;;;;;;;;;1.33;1.33;;;;;25.95;35.07;101308.19;4884971;28;45758;-88
2023/07/19 18:20:41;;;;;;;;;1.00;1.00;;;;;25.95;35.10;101308.19;4909176;28;45706;-88
2023/07/19 18:23:07;;;;;;;;;1.00;1.00;;;;;25.94;35.53;101314.50;4919667;28;46013;-88
2023/07/19 18:25:33;;;;;;;;;1.33;0.67;;;;;25.94;35.29;101314.50;4912996;28;45699;-85
2023/07/19 18:27:58;;;;;;;;;0.00;0.00;;;;;25.92;36.01;101317.31;4892877;28;45406;-86
2023/07/19 18:30:24;;;;;;;;;2.00;2.00;;;;;25.90;35.51;101319.28;4895248;28;45620;-86
2023/07/19 18:32:49;;;;;;;;;0.00;0.00;;;;;25.88;35.85;101318.59;4908080;28;45764;-86
2023/07/19 18:35:16;;;;;;;;;2.00;1.00;;;;;25.86;35.68;101317.88;4906952;28;45334;-86
2023/07/19 18:37:42;;;;;;;;;3.00;1.00;;;;;25.77;36.04;101316.91;4931083;28;45321;-86
2023/07/19 18:40:08;;;;;;;;;5.00;2.67;;;;;25.72;36.47;101325.34;4909055;28;45355;-86
2023/07/19 18:42:34;;;;;;;;;1.00;1.00;;;;;25.68;36.54;101313.25;4935024;28;46544;-85
2023/07/19 18:44:59;;;;;;;;;1.67;1.00;;;;;25.63;36.23;101322.69;4925656;28;45308;-86
2023/07/19 18:47:24;;;;;;;;;1.33;1.33;;;;;25.63;36.77;101322.69;4888082;28;45624;-86
2023/07/19 18:49:51;;;;;;;;;1.00;1.00;;;;;25.60;36.55;101327.28;4905218;28;45798;-86
2023/07/19 18:52:17;;;;;;;;;2.33;1.33;;;;;25.60;36.45;101327.28;4904044;28;46865;-86
2023/07/19 18:54:42;;;;;;;;;1.00;1.00;;;;;25.57;36.63;101327.59;4915442;28;45726;-86
2023/07/19 18:57:08;;;;;;;;;1.00;1.00;;;;;25.54;36.99;101319.03;4899935;28;45711;-87
2023/07/19 18:59:38;;;;;;;;;1.33;1.00;;;;;25.47;36.69;101324.03;4904857;28;45510;-88
2023/07/19 19:02:05;;;;;;;;;0.00;0.00;;;;;25.40;36.96;101328.25;4913857;28;45833;-89
2023/07/19 19:04:30;;;;;;;;;2.00;1.00;;;;;25.36;37.11;101335.66;4917246;28;45586;-88
2023/07/19 19:06:56;;;;;;;;;0.33;0.33;;;;;25.28;36.90;101339.03;4911900;28;45385;-89
2023/07/19 19:09:21;;;;;;;;;1.00;1.00;;;;;25.20;37.08;101341.53;4898808;28;45623;-89
2023/07/19 19:11:48;;;;;;;;;0.33;0.33;;;;;25.10;37.19;101333.50;4932487;28;45591;-88
2023/07/19 19:14:13;;;;;;;;;1.00;1.00;;;;;25.07;37.57;101339.97;4926296;28;45623;-88
2023/07/19 19:16:38;;;;;;;;;4.00;2.00;;;;;25.04;37.74;101339.38;4906958;28;45479;-89
2023/07/19 19:19:04;;;;;;;;;1.00;1.00;;;;;24.99;37.16;101338.97;4900889;28;45611;-86
2023/07/19 19:21:29;;;;;;;;;3.00;1.00;;;;;24.93;37.70;101337.66;4916397;28;47255;-86
2023/07/19 19:23:55;;;;;;;;;1.00;1.00;;;;;24.90;37.27;101345.94;4912582;28;45474;-86
2023/07/19 19:26:20;;;;;;;;;0.33;0.33;;;;;24.85;37.39;101348.16;4911303;28;45473;-86
2023/07/19 19:28:45;;;;;;;;;1.67;1.67;;;;;24.78;37.69;101354.00;4907243;28;45597;-86
2023/07/19 19:31:11;;;;;;;;;1.33;1.33;;;;;24.76;37.90;101349.78;4913578;28;45657;-86
2023/07/19 19:33:37;;;;;;;;;1.67;1.00;;;;;24.70;37.61;101348.47;4906692;28;45562;-89
2023/07/19 19:36:02;;;;;;;;;2.33;2.33;;;;;24.59;37.29;101349.41;4924304;28;45530;-89
2023/07/19 19:38:29;;;;;;;;;1.00;1.00;;;;;24.52;37.61;101346.44;4927367;28;45507;-89
2023/07/19 19:40:56;;;;;;;;;2.33;2.00;;;;;24.49;37.60;101359.16;4923363;28;45754;-88
2023/07/19 19:43:23;;;;;;;;;2.67;1.00;;;;;24.44;37.66;101354.22;4914034;28;45374;-88
2023/07/19 19:45:49;;;;;;;;;1.00;1.00;;;;;24.41;37.77;101359.81;4906223;28;45591;-88
2023/07/19 19:48:15;;;;;;;;;1.67;1.00;;;;;24.38;37.73;101362.72;4913428;28;45551;-88
2023/07/19 19:50:41;;;;;;;;;3.00;1.00;;;;;24.31;37.91;101365.09;4900229;28;45443;-89
2023/07/19 19:53:07;;;;;;;;;2.67;2.00;;;;;24.26;37.86;101373.44;4902509;28;45516;-88
2023/07/19 19:55:32;;;;;;;;;3.00;1.33;;;;;24.21;37.79;101366.84;4915855;28;45406;-88
2023/07/19 19:57:58;;;;;;;;;0.67;0.67;;;;;24.14;38.08;101372.69;4922072;28;45361;-88
2023/07/19 20:00:24;;;;;;;;;2.67;2.00;;;;;24.09;38.51;101372.22;4911986;28;46047;-88
2023/07/19 20:02:54;;;;;;;;;3.00;2.67;;;;;24.06;38.36;101376.91;4909686;28;45312;-89
2023/07/19 20:05:21;;;;;;;;;3.67;2.67;;;;;23.99;38.29;101380.09;4898037;28;45485;-89
2023/07/19 20:07:47;;;;;;;;;3.00;2.00;;;;;23.95;38.07;101383.97;4900806;28;45323;-88
2023/07/19 20:10:13;;;;;;;;;4.00;2.00;;;;;23.90;38.50;101391.47;4907065;28;47519;-89
2023/07/19 20:12:43;;;;;;;;;1.00;1.00;;;;;23.81;38.58;101384.25;4909814;28;45426;-88
2023/07/19 20:15:11;;;;;;;;;1.00;0.33;;;;;23.76;38.85;101385.47;4925417;28;45680;-88
2023/07/19 20:17:36;;;;;;;;;1.33;1.33;;;;;23.73;39.02;101384.88;4907338;28;45559;-88
2023/07/19 20:20:03;;;;;;;;;1.33;1.33;;;;;23.67;38.95;101382.75;4913842;28;45396;-88
2023/07/19 20:22:30;;;;;;;;;2.00;1.00;;;;;23.62;39.01;101388.44;4923352;28;45516;-88
2023/07/19 20:24:55;;;;;;;;;1.33;1.33;;;;;23.58;39.25;101390.50;4909211;28;45545;-88
2023/07/19 20:27:20;;;;;;;;;1.33;1.33;;;;;23.54;39.05;101391.72;4917619;28;44943;-89
2023/07/19 20:29:48;;;;;;;;;1.33;1.33;;;;;23.48;39.03;101397.53;4930512;28;45520;-88
2023/07/19 20:32:16;;;;;;;;;1.33;1.33;;;;;23.44;39.37;101396.09;4908824;28;45466;-89
2023/07/19 20:34:43;;;;;;;;;2.00;2.00;;;;;23.39;38.92;101390.28;4905776;28;45285;-89
2023/07/19 20:37:08;;;;;;;;;2.00;1.33;;;;;23.40;39.69;101394.63;4899799;28;45356;-88
2023/07/19 20:39:35;;;;;;;;;1.33;1.33;;;;;23.39;39.28;101392.94;4902645;28;45571;-88
2023/07/19 20:42:00;;;;;;;;;2.33;2.33;;;;;23.33;39.81;101395.13;4898640;28;45508;-88
2023/07/19 20:44:26;;;;;;;;;5.67;2.33;;;;;23.32;39.39;101395.25;4882678;29;45489;-88
2023/07/19 20:46:52;;;;;;;;;3.00;3.00;;;;;23.27;39.47;101387.63;4901798;28;45927;-88
2023/07/19 20:49:18;;;;;;;;;2.33;2.33;;;;;23.24;40.11;101403.81;4901318;28;45648;-88
2023/07/19 20:51:44;;;;;;;;;1.67;1.33;;;;;23.19;39.61;101400.69;4886400;28;45621;-88
2023/07/19 20:54:12;;;;;;;;;1.33;1.33;;;;;23.12;39.70;101404.78;4899832;28;45541;-88
2023/07/19 20:56:38;;;;;;;;;2.67;1.67;;;;;23.03;40.41;101393.94;4898592;28;45647;-88
2023/07/19 20:59:03;;;;;;;;;1.67;1.67;;;;;23.01;40.01;101398.50;4899512;28;47769;-88
2023/07/19 21:01:31;;;;;;;;;2.00;2.00;;;;;23.03;40.23;101401.03;4897199;28;45407;-88
2023/07/19 21:03:56;;;;;;;;;2.33;2.33;;;;;23.00;40.34;101401.28;4911390;28;45468;-88
2023/07/19 21:06:24;;;;;;;;;3.00;3.00;;;;;22.97;40.11;101399.72;4897401;28;45575;-88
2023/07/19 21:08:51;;;;;;;;;2.33;2.00;;;;;22.92;40.74;101402.72;4914551;28;46852;-88
2023/07/19 21:11:16;;;;;;;;;4.00;3.33;;;;;22.88;40.71;101409.25;4887476;28;45528;-88
2023/07/19 21:13:42;;;;;;;;;1.67;1.67;;;;;22.82;40.65;101405.25;4893536;28;45681;-89
2023/07/19 21:16:07;;;;;;;;;2.00;2.00;;;;;22.82;40.63;101401.78;4885773;28;45844;-88
2023/07/19 21:18:33;;;;;;;;;2.67;1.33;;;;;22.81;41.24;101397.41;4899535;28;46474;-88
2023/07/19 21:21:00;;;;;;;;;2.00;2.00;;;;;22.80;40.59;101407.19;4911685;28;45845;-89
2023/07/19 21:23:26;;;;;;;;;4.00;1.33;;;;;22.77;41.27;101396.81;4905217;28;45469;-89
